sensor_id;sensor_type;location;lat;lon;timestamp;P1;durP1;ratioP1;P2;durP2;ratioP2
78406;SDS011;67692;51.074;-1.790;2023-10-31T00:02:20;14.60;;;5.75;;
78406;SDS011;67692;51.074;-1.790;2023-10-31T00:04:47;15.82;;;5.22;;
78406;SDS011;67692;51.074;-1.790;2023-10-31T00:07:13;14.60;;;5.65;;
78406;SDS011;67692;51.074;-1.790;2023-10-31T00:09:40;11.88;;;5.28;;
78406;SDS011;67692;51.074;-1.790;2023-10-31T00:12:07;18.75;;;5.80;;
78406;SDS011;67692;51.074;-1.790;2023-10-31T00:14:33;16.90;;;5.45;;
78406;SDS011;67692;51.074;-1.790;2023-10-31T00:17:00;16.40;;;4.97;;
78406;SDS011;67692;51.074;-1.790;2023-10-31T00:19:28;13.82;;;5.15;;
78406;SDS011;67692;51.074;-1.790;2023-10-31T00:21:55;15.98;;;6.30;;
78406;SDS011;67692;51.074;-1.790;2023-10-31T00:24:21;14.20;;;4.20;;
78406;SDS011;67692;51.074;-1.790;2023-10-31T00:26:48;8.40;;;3.75;;
78406;SDS011;67692;51.074;-1.790;2023-10-31T00:29:14;8.32;;;3.35;;
78406;SDS011;67692;51.074;-1.790;2023-10-31T00:31:41;10.25;;;3.42;;
78406;SDS011;67692;51.074;-1.790;2023-10-31T00:34:08;11.43;;;3.55;;
78406;SDS011;67692;51.074;-1.790;2023-10-31T00:36:36;10.27;;;3.58;;
78406;SDS011;67692;51.074;-1.790;2023-10-31T00:39:03;8.88;;;3.70;;
78406;SDS011;67692;51.074;-1.790;2023-10-31T00:41:30;8.63;;;3.40;;
78406;SDS011;67692;51.074;-1.790;2023-10-31T00:43:56;10.55;;;3.45;;
78406;SDS011;67692;51.074;-1.790;2023-10-31T00:46:23;10.57;;;4.40;;
78406;SDS011;67692;51.074;-1.790;2023-10-31T00:48:49;11.02;;;4.00;;
78406;SDS011;67692;51.074;-1.790;2023-10-31T00:51:16;8.43;;;3.35;;
78406;SDS011;67692;51.074;-1.790;2023-10-31T00:53:44;9.75;;;4.10;;
78406;SDS011;67692;51.074;-1.790;2023-10-31T00:56:11;9.05;;;3.70;;
78406;SDS011;67692;51.074;-1.790;2023-10-31T00:58:38;10.38;;;3.60;;
78406;SDS011;67692;51.074;-1.790;2023-10-31T01:01:04;8.95;;;3.58;;
78406;SDS011;67692;51.074;-1.790;2023-10-31T01:03:31;9.73;;;4.18;;
78406;SDS011;67692;51.074;-1.790;2023-10-31T01:05:57;8.18;;;3.53;;
78406;SDS011;67692;51.074;-1.790;2023-10-31T01:08:24;11.20;;;4.32;;
78406;SDS011;67692;51.074;-1.790;2023-10-31T01:10:52;11.32;;;4.10;;
78406;SDS011;67692;51.074;-1.790;2023-10-31T01:13:19;10.70;;;4.05;;
78406;SDS011;67692;51.074;-1.790;2023-10-31T01:15:46;8.70;;;4.07;;
78406;SDS011;67692;51.074;-1.790;2023-10-31T01:18:12;8.68;;;3.80;;
78406;SDS011;67692;51.074;-1.790;2023-10-31T01:20:39;10.45;;;3.63;;
78406;SDS011;67692;51.074;-1.790;2023-10-31T01:23:05;9.60;;;3.60;;
78406;SDS011;67692;51.074;-1.790;2023-10-31T01:25:32;11.70;;;4.35;;
78406;SDS011;67692;51.074;-1.790;2023-10-31T01:28:00;12.55;;;3.85;;
78406;SDS011;67692;51.074;-1.790;2023-10-31T01:30:26;9.45;;;4.00;;
78406;SDS011;67692;51.074;-1.790;2023-10-31T01:32:53;9.25;;;3.88;;
78406;SDS011;67692;51.074;-1.790;2023-10-31T01:35:20;10.57;;;4.07;;
78406;SDS011;67692;51.074;-1.790;2023-10-31T01:37:46;11.75;;;3.53;;
78406;SDS011;67692;51.074;-1.790;2023-10-31T01:40:13;9.70;;;3.88;;
78406;SDS011;67692;51.074;-1.790;2023-10-31T01:42:40;7.80;;;3.42;;
78406;SDS011;67692;51.074;-1.790;2023-10-31T01:45:08;10.18;;;3.90;;
78406;SDS011;67692;51.074;-1.790;2023-10-31T01:47:35;11.48;;;4.32;;
78406;SDS011;67692;51.074;-1.790;2023-10-31T01:50:02;7.80;;;3.63;;
78406;SDS011;67692;51.074;-1.790;2023-10-31T01:52:29;8.02;;;3.10;;
78406;SDS011;67692;51.074;-1.790;2023-10-31T01:54:57;8.55;;;3.45;;
78406;SDS011;67692;51.074;-1.790;2023-10-31T01:57:25;9.02;;;3.88;;
78406;SDS011;67692;51.074;-1.790;2023-10-31T01:59:51;8.38;;;3.42;;
78406;SDS011;67692;51.074;-1.790;2023-10-31T02:02:19;6.60;;;3.10;;
78406;SDS011;67692;51.074;-1.790;2023-10-31T02:04:49;9.60;;;3.55;;
78406;SDS011;67692;51.074;-1.790;2023-10-31T02:07:15;9.10;;;3.63;;
78406;SDS011;67692;51.074;-1.790;2023-10-31T02:09:42;12.57;;;3.80;;
78406;SDS011;67692;51.074;-1.790;2023-10-31T02:12:09;12.95;;;4.50;;
78406;SDS011;67692;51.074;-1.790;2023-10-31T02:14:35;8.60;;;3.33;;
78406;SDS011;67692;51.074;-1.790;2023-10-31T02:17:02;10.73;;;3.80;;
78406;SDS011;67692;51.074;-1.790;2023-10-31T02:19:30;12.77;;;3.83;;
78406;SDS011;67692;51.074;-1.790;2023-10-31T02:21:58;9.90;;;3.53;;
78406;SDS011;67692;51.074;-1.790;2023-10-31T02:24:24;8.38;;;3.50;;
78406;SDS011;67692;51.074;-1.790;2023-10-31T02:26:51;13.45;;;3.85;;
78406;SDS011;67692;51.074;-1.790;2023-10-31T02:29:18;10.82;;;3.47;;
78406;SDS011;67692;51.074;-1.790;2023-10-31T02:31:44;12.73;;;3.75;;
78406;SDS011;67692;51.074;-1.790;2023-10-31T02:34:11;10.82;;;3.47;;
78406;SDS011;67692;51.074;-1.790;2023-10-31T02:36:38;9.98;;;3.35;;
78406;SDS011;67692;51.074;-1.790;2023-10-31T02:39:05;11.10;;;3.83;;
78406;SDS011;67692;51.074;-1.790;2023-10-31T02:41:32;10.80;;;3.22;;
78406;SDS011;67692;51.074;-1.790;2023-10-31T02:43:59;9.98;;;3.33;;
78406;SDS011;67692;51.074;-1.790;2023-10-31T02:46:25;10.13;;;2.92;;
78406;SDS011;67692;51.074;-1.790;2023-10-31T02:48:52;9.98;;;4.38;;
78406;SDS011;67692;51.074;-1.790;2023-10-31T02:51:18;9.57;;;4.00;;
78406;SDS011;67692;51.074;-1.790;2023-10-31T02:53:45;9.10;;;3.45;;
78406;SDS011;67692;51.074;-1.790;2023-10-31T02:56:13;11.52;;;3.90;;
78406;SDS011;67692;51.074;-1.790;2023-10-31T02:58:39;8.00;;;3.50;;
78406;SDS011;67692;51.074;-1.790;2023-10-31T03:01:06;11.20;;;3.78;;
78406;SDS011;67692;51.074;-1.790;2023-10-31T03:03:33;10.68;;;4.32;;
78406;SDS011;67692;51.074;-1.790;2023-10-31T03:05:59;10.43;;;4.18;;
78406;SDS011;67692;51.074;-1.790;2023-10-31T03:08:26;8.52;;;3.60;;
78406;SDS011;67692;51.074;-1.790;2023-10-31T03:10:53;10.80;;;4.05;;
78406;SDS011;67692;51.074;-1.790;2023-10-31T03:13:21;15.45;;;4.60;;
78406;SDS011;67692;51.074;-1.790;2023-10-31T03:15:48;10.82;;;4.03;;
78406;SDS011;67692;51.074;-1.790;2023-10-31T03:18:15;10.50;;;3.80;;
78406;SDS011;67692;51.074;-1.790;2023-10-31T03:20:43;9.90;;;4.07;;
78406;SDS011;67692;51.074;-1.790;2023-10-31T03:23:10;11.40;;;4.30;;
78406;SDS011;67692;51.074;-1.790;2023-10-31T03:25:37;9.00;;;3.65;;
78406;SDS011;67692;51.074;-1.790;2023-10-31T03:28:03;9.90;;;4.03;;
78406;SDS011;67692;51.074;-1.790;2023-10-31T03:30:32;9.43;;;3.95;;
78406;SDS011;67692;51.074;-1.790;2023-10-31T03:32:58;11.35;;;3.97;;
78406;SDS011;67692;51.074;-1.790;2023-10-31T03:35:25;11.98;;;4.53;;
78406;SDS011;67692;51.074;-1.790;2023-10-31T03:37:52;15.52;;;4.10;;
78406;SDS011;67692;51.074;-1.790;2023-10-31T03:40:18;8.30;;;3.67;;
78406;SDS011;67692;51.074;-1.790;2023-10-31T03:42:45;7.28;;;3.22;;
78406;SDS011;67692;51.074;-1.790;2023-10-31T03:45:11;10.57;;;3.55;;
78406;SDS011;67692;51.074;-1.790;2023-10-31T03:47:39;10.27;;;3.88;;
78406;SDS011;67692;51.074;-1.790;2023-10-31T03:50:06;9.10;;;3.42;;
78406;SDS011;67692;51.074;-1.790;2023-10-31T03:52:34;14.95;;;3.90;;
78406;SDS011;67692;51.074;-1.790;2023-10-31T03:55:01;9.82;;;4.25;;
78406;SDS011;67692;51.074;-1.790;2023-10-31T03:57:27;9.45;;;3.95;;
78406;SDS011;67692;51.074;-1.790;2023-10-31T03:59:54;8.75;;;3.90;;
78406;SDS011;67692;51.074;-1.790;2023-10-31T04:02:20;9.13;;;4.03;;
78406;SDS011;67692;51.074;-1.790;2023-10-31T04:04:48;12.40;;;3.90;;
78406;SDS011;67692;51.074;-1.790;2023-10-31T04:07:15;8.35;;;3.50;;
78406;SDS011;67692;51.074;-1.790;2023-10-31T04:09:42;8.43;;;3.75;;
78406;SDS011;67692;51.074;-1.790;2023-10-31T04:12:09;8.05;;;3.78;;
78406;SDS011;67692;51.074;-1.790;2023-10-31T04:14:35;6.72;;;3.08;;
78406;SDS011;67692;51.074;-1.790;2023-10-31T04:17:04;5.95;;;2.90;;
78406;SDS011;67692;51.074;-1.790;2023-10-31T04:19:30;9.65;;;3.45;;
78406;SDS011;67692;51.074;-1.790;2023-10-31T04:21:58;6.82;;;2.90;;
78406;SDS011;67692;51.074;-1.790;2023-10-31T04:24:25;7.75;;;3.20;;
78406;SDS011;67692;51.074;-1.790;2023-10-31T04:26:51;10.32;;;2.90;;
78406;SDS011;67692;51.074;-1.790;2023-10-31T04:29:18;6.43;;;2.65;;
78406;SDS011;67692;51.074;-1.790;2023-10-31T04:31:44;6.40;;;2.80;;
78406;SDS011;67692;51.074;-1.790;2023-10-31T04:34:11;9.15;;;2.40;;
78406;SDS011;67692;51.074;-1.790;2023-10-31T04:36:38;6.70;;;2.50;;
78406;SDS011;67692;51.074;-1.790;2023-10-31T04:39:07;5.68;;;2.47;;
78406;SDS011;67692;51.074;-1.790;2023-10-31T04:41:33;9.15;;;2.42;;
78406;SDS011;67692;51.074;-1.790;2023-10-31T04:44:00;8.23;;;2.25;;
78406;SDS011;67692;51.074;-1.790;2023-10-31T04:46:28;8.02;;;2.40;;
78406;SDS011;67692;51.074;-1.790;2023-10-31T04:48:54;7.93;;;2.53;;
78406;SDS011;67692;51.074;-1.790;2023-10-31T04:51:21;6.50;;;2.42;;
78406;SDS011;67692;51.074;-1.790;2023-10-31T04:53:47;7.43;;;2.13;;
78406;SDS011;67692;51.074;-1.790;2023-10-31T04:56:15;6.90;;;2.15;;
78406;SDS011;67692;51.074;-1.790;2023-10-31T04:58:43;6.45;;;2.00;;
78406;SDS011;67692;51.074;-1.790;2023-10-31T05:01:10;4.95;;;2.53;;
78406;SDS011;67692;51.074;-1.790;2023-10-31T05:03:37;6.18;;;1.80;;
78406;SDS011;67692;51.074;-1.790;2023-10-31T05:06:03;4.28;;;1.73;;
78406;SDS011;67692;51.074;-1.790;2023-10-31T05:08:30;8.52;;;2.20;;
78406;SDS011;67692;51.074;-1.790;2023-10-31T05:10:57;7.35;;;2.13;;
78406;SDS011;67692;51.074;-1.790;2023-10-31T05:13:26;5.55;;;2.17;;
78406;SDS011;67692;51.074;-1.790;2023-10-31T05:15:52;4.55;;;2.03;;
78406;SDS011;67692;51.074;-1.790;2023-10-31T05:18:19;6.15;;;2.10;;
78406;SDS011;67692;51.074;-1.790;2023-10-31T05:20:45;5.88;;;2.25;;
78406;SDS011;67692;51.074;-1.790;2023-10-31T05:23:13;4.80;;;2.00;;
78406;SDS011;67692;51.074;-1.790;2023-10-31T05:25:39;5.35;;;2.10;;
78406;SDS011;67692;51.074;-1.790;2023-10-31T05:28:06;4.40;;;1.90;;
78406;SDS011;67692;51.074;-1.790;2023-10-31T05:30:34;6.82;;;2.45;;
78406;SDS011;67692;51.074;-1.790;2023-10-31T05:33:00;6.63;;;2.03;;
78406;SDS011;67692;51.074;-1.790;2023-10-31T05:35:27;5.47;;;1.80;;
78406;SDS011;67692;51.074;-1.790;2023-10-31T05:37:54;5.43;;;2.03;;
78406;SDS011;67692;51.074;-1.790;2023-10-31T05:40:21;4.63;;;1.77;;
78406;SDS011;67692;51.074;-1.790;2023-10-31T05:42:50;6.22;;;1.92;;
78406;SDS011;67692;51.074;-1.790;2023-10-31T05:45:16;3.35;;;1.45;;
78406;SDS011;67692;51.074;-1.790;2023-10-31T05:47:44;4.35;;;1.88;;
78406;SDS011;67692;51.074;-1.790;2023-10-31T05:50:11;4.60;;;2.10;;
78406;SDS011;67692;51.074;-1.790;2023-10-31T05:52:37;5.28;;;1.80;;
78406;SDS011;67692;51.074;-1.790;2023-10-31T05:55:04;5.43;;;2.03;;
78406;SDS011;67692;51.074;-1.790;2023-10-31T05:57:32;5.57;;;1.83;;
78406;SDS011;67692;51.074;-1.790;2023-10-31T05:59:59;4.22;;;1.63;;
78406;SDS011;67692;51.074;-1.790;2023-10-31T06:02:25;7.07;;;2.00;;
78406;SDS011;67692;51.074;-1.790;2023-10-31T06:04:53;9.75;;;2.17;;
78406;SDS011;67692;51.074;-1.790;2023-10-31T06:07:20;5.60;;;2.45;;
78406;SDS011;67692;51.074;-1.790;2023-10-31T06:09:46;4.70;;;2.28;;
78406;SDS011;67692;51.074;-1.790;2023-10-31T06:12:13;5.93;;;2.20;;
78406;SDS011;67692;51.074;-1.790;2023-10-31T06:14:39;7.43;;;2.50;;
78406;SDS011;67692;51.074;-1.790;2023-10-31T06:17:06;7.57;;;2.35;;
78406;SDS011;67692;51.074;-1.790;2023-10-31T06:19:33;8.95;;;2.55;;
78406;SDS011;67692;51.074;-1.790;2023-10-31T06:22:02;5.78;;;2.25;;
78406;SDS011;67692;51.074;-1.790;2023-10-31T06:24:28;8.88;;;2.50;;
78406;SDS011;67692;51.074;-1.790;2023-10-31T06:26:55;5.13;;;1.80;;
78406;SDS011;67692;51.074;-1.790;2023-10-31T06:29:21;4.72;;;1.90;;
78406;SDS011;67692;51.074;-1.790;2023-10-31T06:31:48;4.38;;;1.60;;
78406;SDS011;67692;51.074;-1.790;2023-10-31T06:34:15;7.43;;;2.10;;
78406;SDS011;67692;51.074;-1.790;2023-10-31T06:36:41;5.07;;;1.77;;
78406;SDS011;67692;51.074;-1.790;2023-10-31T06:39:09;7.55;;;2.58;;
78406;SDS011;67692;51.074;-1.790;2023-10-31T06:41:35;10.18;;;3.17;;
78406;SDS011;67692;51.074;-1.790;2023-10-31T06:44:03;8.90;;;2.67;;
78406;SDS011;67692;51.074;-1.790;2023-10-31T06:46:29;9.55;;;2.60;;
78406;SDS011;67692;51.074;-1.790;2023-10-31T06:48:56;7.97;;;3.00;;
78406;SDS011;67692;51.074;-1.790;2023-10-31T06:51:23;4.45;;;2.05;;
78406;SDS011;67692;51.074;-1.790;2023-10-31T06:53:49;8.10;;;2.70;;
78406;SDS011;67692;51.074;-1.790;2023-10-31T06:56:18;12.73;;;2.83;;
78406;SDS011;67692;51.074;-1.790;2023-10-31T06:58:45;5.38;;;1.95;;
78406;SDS011;67692;51.074;-1.790;2023-10-31T07:01:11;7.93;;;2.28;;
78406;SDS011;67692;51.074;-1.790;2023-10-31T07:03:39;8.13;;;2.55;;
78406;SDS011;67692;51.074;-1.790;2023-10-31T07:06:05;12.98;;;2.75;;
78406;SDS011;67692;51.074;-1.790;2023-10-31T07:08:32;7.63;;;2.42;;
78406;SDS011;67692;51.074;-1.790;2023-10-31T07:10:59;70.15;;;4.97;;
78406;SDS011;67692;51.074;-1.790;2023-10-31T07:13:27;6.07;;;2.85;;
78406;SDS011;67692;51.074;-1.790;2023-10-31T07:15:53;25.75;;;3.38;;
78406;SDS011;67692;51.074;-1.790;2023-10-31T07:18:20;6.78;;;2.80;;
78406;SDS011;67692;51.074;-1.790;2023-10-31T07:20:46;6.43;;;3.03;;
78406;SDS011;67692;51.074;-1.790;2023-10-31T07:23:13;18.70;;;3.97;;
78406;SDS011;67692;51.074;-1.790;2023-10-31T07:25:39;10.85;;;3.83;;
78406;SDS011;67692;51.074;-1.790;2023-10-31T07:28:06;10.57;;;3.08;;
78406;SDS011;67692;51.074;-1.790;2023-10-31T07:30:34;14.30;;;3.35;;
78406;SDS011;67692;51.074;-1.790;2023-10-31T07:33:01;13.23;;;3.38;;
78406;SDS011;67692;51.074;-1.790;2023-10-31T07:35:28;5.13;;;2.05;;
78406;SDS011;67692;51.074;-1.790;2023-10-31T07:37:54;23.45;;;10.02;;
78406;SDS011;67692;51.074;-1.790;2023-10-31T07:40:21;12.27;;;4.47;;
78406;SDS011;67692;51.074;-1.790;2023-10-31T07:42:47;11.30;;;3.85;;
78406;SDS011;67692;51.074;-1.790;2023-10-31T07:45:14;8.10;;;2.90;;
78406;SDS011;67692;51.074;-1.790;2023-10-31T07:47:42;10.15;;;3.40;;
78406;SDS011;67692;51.074;-1.790;2023-10-31T07:50:09;9.50;;;2.95;;
78406;SDS011;67692;51.074;-1.790;2023-10-31T07:52:36;11.27;;;2.97;;
78406;SDS011;67692;51.074;-1.790;2023-10-31T07:55:02;8.45;;;3.03;;
78406;SDS011;67692;51.074;-1.790;2023-10-31T07:57:29;51.00;;;3.78;;
78406;SDS011;67692;51.074;-1.790;2023-10-31T07:59:56;77.90;;;5.03;;
78406;SDS011;67692;51.074;-1.790;2023-10-31T08:02:22;39.20;;;3.58;;
78406;SDS011;67692;51.074;-1.790;2023-10-31T08:04:50;33.50;;;2.90;;
78406;SDS011;67692;51.074;-1.790;2023-10-31T08:07:17;42.40;;;3.92;;
78406;SDS011;67692;51.074;-1.790;2023-10-31T08:09:44;20.17;;;3.00;;
78406;SDS011;67692;51.074;-1.790;2023-10-31T08:12:10;11.13;;;2.17;;
78406;SDS011;67692;51.074;-1.790;2023-10-31T08:14:37;8.40;;;2.13;;
78406;SDS011;67692;51.074;-1.790;2023-10-31T08:17:03;6.28;;;2.40;;
78406;SDS011;67692;51.074;-1.790;2023-10-31T08:19:30;16.42;;;2.65;;
78406;SDS011;67692;51.074;-1.790;2023-10-31T08:21:58;8.32;;;2.65;;
78406;SDS011;67692;51.074;-1.790;2023-10-31T08:24:24;8.20;;;2.50;;
78406;SDS011;67692;51.074;-1.790;2023-10-31T08:26:51;8.52;;;2.63;;
78406;SDS011;67692;51.074;-1.790;2023-10-31T08:29:17;5.53;;;1.90;;
78406;SDS011;67692;51.074;-1.790;2023-10-31T08:31:44;30.33;;;3.20;;
78406;SDS011;67692;51.074;-1.790;2023-10-31T08:34:10;6.63;;;2.50;;
78406;SDS011;67692;51.074;-1.790;2023-10-31T08:36:37;7.45;;;2.13;;
78406;SDS011;67692;51.074;-1.790;2023-10-31T08:39:05;6.45;;;2.33;;
78406;SDS011;67692;51.074;-1.790;2023-10-31T08:41:32;5.18;;;2.00;;
78406;SDS011;67692;51.074;-1.790;2023-10-31T08:43:59;5.00;;;1.80;;
78406;SDS011;67692;51.074;-1.790;2023-10-31T08:46:28;6.95;;;1.77;;
78406;SDS011;67692;51.074;-1.790;2023-10-31T08:48:55;5.18;;;1.95;;
78406;SDS011;67692;51.074;-1.790;2023-10-31T08:51:22;5.00;;;1.70;;
78406;SDS011;67692;51.074;-1.790;2023-10-31T08:53:48;4.50;;;1.48;;
78406;SDS011;67692;51.074;-1.790;2023-10-31T08:56:16;4.50;;;1.83;;
78406;SDS011;67692;51.074;-1.790;2023-10-31T08:58:44;4.65;;;1.77;;
78406;SDS011;67692;51.074;-1.790;2023-10-31T09:01:11;4.65;;;1.52;;
78406;SDS011;67692;51.074;-1.790;2023-10-31T09:03:37;6.82;;;1.67;;
78406;SDS011;67692;51.074;-1.790;2023-10-31T09:06:04;7.40;;;1.60;;
78406;SDS011;67692;51.074;-1.790;2023-10-31T09:08:31;7.07;;;1.20;;
78406;SDS011;67692;51.074;-1.790;2023-10-31T09:10:59;3.58;;;1.35;;
78406;SDS011;67692;51.074;-1.790;2023-10-31T09:13:27;3.83;;;1.17;;
78406;SDS011;67692;51.074;-1.790;2023-10-31T09:15:53;4.55;;;0.80;;
78406;SDS011;67692;51.074;-1.790;2023-10-31T09:18:20;4.22;;;0.88;;
78406;SDS011;67692;51.074;-1.790;2023-10-31T09:20:46;4.65;;;1.02;;
78406;SDS011;67692;51.074;-1.790;2023-10-31T09:23:13;5.53;;;1.10;;
78406;SDS011;67692;51.074;-1.790;2023-10-31T09:25:40;5.03;;;0.93;;
78406;SDS011;67692;51.074;-1.790;2023-10-31T09:28:06;4.20;;;1.02;;
78406;SDS011;67692;51.074;-1.790;2023-10-31T09:30:34;4.05;;;1.00;;
78406;SDS011;67692;51.074;-1.790;2023-10-31T09:33:01;3.65;;;1.08;;
78406;SDS011;67692;51.074;-1.790;2023-10-31T09:35:27;5.75;;;1.25;;
78406;SDS011;67692;51.074;-1.790;2023-10-31T09:37:54;4.90;;;1.02;;
78406;SDS011;67692;51.074;-1.790;2023-10-31T09:40:21;6.90;;;1.40;;
78406;SDS011;67692;51.074;-1.790;2023-10-31T09:42:48;4.97;;;1.23;;
78406;SDS011;67692;51.074;-1.790;2023-10-31T09:45:15;6.70;;;1.60;;
78406;SDS011;67692;51.074;-1.790;2023-10-31T09:47:43;8.02;;;1.23;;
78406;SDS011;67692;51.074;-1.790;2023-10-31T09:50:09;7.10;;;1.02;;
78406;SDS011;67692;51.074;-1.790;2023-10-31T09:52:37;5.32;;;1.05;;
78406;SDS011;67692;51.074;-1.790;2023-10-31T09:55:04;3.10;;;0.88;;
78406;SDS011;67692;51.074;-1.790;2023-10-31T09:57:31;6.38;;;1.10;;
78406;SDS011;67692;51.074;-1.790;2023-10-31T09:59:58;2.67;;;0.50;;
78406;SDS011;67692;51.074;-1.790;2023-10-31T10:02:25;7.07;;;0.77;;
78406;SDS011;67692;51.074;-1.790;2023-10-31T10:04:53;5.78;;;1.13;;
78406;SDS011;67692;51.074;-1.790;2023-10-31T10:07:20;9.35;;;1.05;;
78406;SDS011;67692;51.074;-1.790;2023-10-31T10:09:46;6.90;;;1.00;;
78406;SDS011;67692;51.074;-1.790;2023-10-31T10:12:13;7.53;;;0.75;;
78406;SDS011;67692;51.074;-1.790;2023-10-31T10:14:42;13.13;;;0.88;;
78406;SDS011;67692;51.074;-1.790;2023-10-31T10:17:14;6.38;;;0.80;;
78406;SDS011;67692;51.074;-1.790;2023-10-31T10:19:42;6.35;;;0.80;;
78406;SDS011;67692;51.074;-1.790;2023-10-31T10:22:10;4.63;;;1.08;;
78406;SDS011;67692;51.074;-1.790;2023-10-31T10:24:39;4.55;;;1.02;;
78406;SDS011;67692;51.074;-1.790;2023-10-31T10:27:06;10.15;;;0.95;;
78406;SDS011;67692;51.074;-1.790;2023-10-31T10:29:33;7.47;;;0.98;;
78406;SDS011;67692;51.074;-1.790;2023-10-31T10:32:00;6.00;;;0.90;;
78406;SDS011;67692;51.074;-1.790;2023-10-31T10:34:26;7.13;;;1.25;;
78406;SDS011;67692;51.074;-1.790;2023-10-31T10:36:53;5.10;;;0.90;;
78406;SDS011;67692;51.074;-1.790;2023-10-31T10:39:23;8.77;;;1.67;;
78406;SDS011;67692;51.074;-1.790;2023-10-31T10:41:52;4.75;;;0.95;;
78406;SDS011;67692;51.074;-1.790;2023-10-31T10:44:24;5.25;;;1.52;;
78406;SDS011;67692;51.074;-1.790;2023-10-31T10:46:58;5.82;;;1.40;;
78406;SDS011;67692;51.074;-1.790;2023-10-31T10:49:27;5.97;;;1.10;;
78406;SDS011;67692;51.074;-1.790;2023-10-31T10:51:58;3.20;;;0.77;;
78406;SDS011;67692;51.074;-1.790;2023-10-31T10:54:37;9.52;;;1.25;;
78406;SDS011;67692;51.074;-1.790;2023-10-31T10:57:13;3.53;;;0.80;;
78406;SDS011;67692;51.074;-1.790;2023-10-31T10:59:41;3.60;;;0.85;;
78406;SDS011;67692;51.074;-1.790;2023-10-31T11:02:10;8.02;;;0.70;;
78406;SDS011;67692;51.074;-1.790;2023-10-31T11:04:39;2.65;;;0.55;;
78406;SDS011;67692;51.074;-1.790;2023-10-31T11:07:08;6.95;;;0.80;;
78406;SDS011;67692;51.074;-1.790;2023-10-31T11:09:36;5.05;;;0.73;;
78406;SDS011;67692;51.074;-1.790;2023-10-31T11:12:04;3.38;;;0.82;;
78406;SDS011;67692;51.074;-1.790;2023-10-31T11:14:32;3.75;;;0.70;;
78406;SDS011;67692;51.074;-1.790;2023-10-31T11:17:01;6.72;;;1.20;;
78406;SDS011;67692;51.074;-1.790;2023-10-31T11:19:35;3.33;;;0.88;;
78406;SDS011;67692;51.074;-1.790;2023-10-31T11:22:05;4.15;;;0.75;;
78406;SDS011;67692;51.074;-1.790;2023-10-31T11:27:01;6.20;;;1.10;;
78406;SDS011;67692;51.074;-1.790;2023-10-31T11:29:30;4.55;;;0.95;;
78406;SDS011;67692;51.074;-1.790;2023-10-31T11:31:56;4.15;;;0.60;;
78406;SDS011;67692;51.074;-1.790;2023-10-31T11:34:25;7.47;;;0.80;;
78406;SDS011;67692;51.074;-1.790;2023-10-31T11:36:52;5.20;;;0.90;;
78406;SDS011;67692;51.074;-1.790;2023-10-31T11:39:19;5.07;;;0.82;;
78406;SDS011;67692;51.074;-1.790;2023-10-31T11:41:53;2.42;;;0.65;;
78406;SDS011;67692;51.074;-1.790;2023-10-31T11:44:23;4.88;;;0.80;;
78406;SDS011;67692;51.074;-1.790;2023-10-31T11:46:52;3.35;;;0.70;;
78406;SDS011;67692;51.074;-1.790;2023-10-31T11:49:32;5.25;;;0.80;;
78406;SDS011;67692;51.074;-1.790;2023-10-31T11:52:15;7.78;;;1.15;;
78406;SDS011;67692;51.074;-1.790;2023-10-31T11:57:09;7.72;;;0.80;;
78406;SDS011;67692;51.074;-1.790;2023-10-31T11:59:37;5.10;;;1.25;;
78406;SDS011;67692;51.074;-1.790;2023-10-31T12:02:12;8.88;;;0.88;;
78406;SDS011;67692;51.074;-1.790;2023-10-31T12:04:39;6.10;;;0.80;;
78406;SDS011;67692;51.074;-1.790;2023-10-31T12:07:05;8.48;;;1.08;;
78406;SDS011;67692;51.074;-1.790;2023-10-31T12:09:32;2.50;;;0.63;;
78406;SDS011;67692;51.074;-1.790;2023-10-31T12:11:59;4.40;;;0.63;;
78406;SDS011;67692;51.074;-1.790;2023-10-31T12:14:26;6.85;;;0.60;;
78406;SDS011;67692;51.074;-1.790;2023-10-31T12:16:54;4.00;;;0.88;;
78406;SDS011;67692;51.074;-1.790;2023-10-31T12:19:20;5.25;;;0.70;;
78406;SDS011;67692;51.074;-1.790;2023-10-31T12:21:47;3.97;;;0.68;;
78406;SDS011;67692;51.074;-1.790;2023-10-31T12:24:15;8.32;;;0.93;;
78406;SDS011;67692;51.074;-1.790;2023-10-31T12:26:43;7.55;;;0.80;;
78406;SDS011;67692;51.074;-1.790;2023-10-31T12:29:12;9.18;;;1.23;;
78406;SDS011;67692;51.074;-1.790;2023-10-31T12:31:41;7.90;;;1.00;;
78406;SDS011;67692;51.074;-1.790;2023-10-31T12:34:10;3.75;;;1.10;;
78406;SDS011;67692;51.074;-1.790;2023-10-31T12:36:37;4.22;;;0.90;;
78406;SDS011;67692;51.074;-1.790;2023-10-31T12:39:06;3.88;;;1.23;;
78406;SDS011;67692;51.074;-1.790;2023-10-31T12:41:34;3.72;;;0.90;;
78406;SDS011;67692;51.074;-1.790;2023-10-31T12:44:01;8.52;;;1.13;;
78406;SDS011;67692;51.074;-1.790;2023-10-31T12:46:30;6.30;;;1.42;;
78406;SDS011;67692;51.074;-1.790;2023-10-31T12:48:57;5.35;;;1.02;;
78406;SDS011;67692;51.074;-1.790;2023-10-31T12:51:26;8.45;;;1.08;;
78406;SDS011;67692;51.074;-1.790;2023-10-31T12:53:52;7.68;;;1.10;;
78406;SDS011;67692;51.074;-1.790;2023-10-31T12:56:39;3.30;;;1.02;;
78406;SDS011;67692;51.074;-1.790;2023-10-31T12:59:07;6.97;;;1.00;;
78406;SDS011;67692;51.074;-1.790;2023-10-31T13:01:34;6.30;;;1.17;;
78406;SDS011;67692;51.074;-1.790;2023-10-31T13:04:02;9.85;;;1.75;;
78406;SDS011;67692;51.074;-1.790;2023-10-31T13:06:30;7.70;;;1.23;;
78406;SDS011;67692;51.074;-1.790;2023-10-31T13:08:57;4.93;;;1.10;;
78406;SDS011;67692;51.074;-1.790;2023-10-31T13:11:28;5.53;;;1.10;;
78406;SDS011;67692;51.074;-1.790;2023-10-31T13:13:55;7.10;;;1.02;;
78406;SDS011;67692;51.074;-1.790;2023-10-31T13:16:22;8.18;;;1.20;;
78406;SDS011;67692;51.074;-1.790;2023-10-31T13:18:49;4.97;;;1.25;;
78406;SDS011;67692;51.074;-1.790;2023-10-31T13:21:15;8.27;;;1.30;;
78406;SDS011;67692;51.074;-1.790;2023-10-31T13:23:44;10.05;;;1.98;;
78406;SDS011;67692;51.074;-1.790;2023-10-31T13:26:12;8.50;;;1.23;;
78406;SDS011;67692;51.074;-1.790;2023-10-31T13:28:39;6.05;;;0.98;;
78406;SDS011;67692;51.074;-1.790;2023-10-31T13:31:06;3.83;;;1.15;;
78406;SDS011;67692;51.074;-1.790;2023-10-31T13:33:33;8.63;;;1.65;;
78406;SDS011;67692;51.074;-1.790;2023-10-31T13:36:00;5.82;;;0.90;;
78406;SDS011;67692;51.074;-1.790;2023-10-31T13:38:26;11.45;;;1.30;;
78406;SDS011;67692;51.074;-1.790;2023-10-31T13:40:54;13.15;;;1.85;;
78406;SDS011;67692;51.074;-1.790;2023-10-31T13:43:21;10.25;;;1.25;;
78406;SDS011;67692;51.074;-1.790;2023-10-31T13:45:47;9.10;;;1.40;;
78406;SDS011;67692;51.074;-1.790;2023-10-31T13:48:14;8.32;;;1.40;;
78406;SDS011;67692;51.074;-1.790;2023-10-31T13:50:41;8.50;;;2.00;;
78406;SDS011;67692;51.074;-1.790;2023-10-31T13:53:07;7.18;;;1.33;;
78406;SDS011;67692;51.074;-1.790;2023-10-31T13:55:34;15.45;;;1.60;;
78406;SDS011;67692;51.074;-1.790;2023-10-31T13:58:01;6.88;;;1.05;;
78406;SDS011;67692;51.074;-1.790;2023-10-31T14:00:28;11.75;;;1.77;;
78406;SDS011;67692;51.074;-1.790;2023-10-31T14:02:55;5.60;;;1.30;;
78406;SDS011;67692;51.074;-1.790;2023-10-31T14:05:22;12.30;;;1.23;;
78406;SDS011;67692;51.074;-1.790;2023-10-31T14:07:49;5.35;;;0.98;;
78406;SDS011;67692;51.074;-1.790;2023-10-31T14:10:16;7.10;;;1.30;;
78406;SDS011;67692;51.074;-1.790;2023-10-31T14:12:44;8.82;;;1.65;;
78406;SDS011;67692;51.074;-1.790;2023-10-31T14:15:13;11.50;;;1.08;;
78406;SDS011;67692;51.074;-1.790;2023-10-31T14:17:39;8.60;;;1.35;;
78406;SDS011;67692;51.074;-1.790;2023-10-31T14:20:06;10.45;;;1.30;;
78406;SDS011;67692;51.074;-1.790;2023-10-31T14:22:34;8.07;;;1.30;;
78406;SDS011;67692;51.074;-1.790;2023-10-31T14:25:00;10.65;;;1.67;;
78406;SDS011;67692;51.074;-1.790;2023-10-31T14:27:29;13.27;;;1.50;;
78406;SDS011;67692;51.074;-1.790;2023-10-31T14:29:55;14.20;;;1.70;;
78406;SDS011;67692;51.074;-1.790;2023-10-31T14:32:23;14.80;;;2.03;;
78406;SDS011;67692;51.074;-1.790;2023-10-31T14:34:50;9.23;;;1.30;;
78406;SDS011;67692;51.074;-1.790;2023-10-31T14:37:17;7.68;;;1.83;;